To NAV CANADA Home Page Login to a new session Search on AWWS site Feedback and Comments Disclaimer Vers la page française équivalente Tips FAQ What's new on the site To the Forecasts and Observations / NOTAM section To "File a Flight Plan" website Publications and other links Update of the User's profile FIC Telephone Numbers My Weather Data Folder Route Weather Data Regional Weather Data Local Weather Data To the Forecasts and Observations / NOTAM section
Request Generated 07/03/2015 at 20:15:27 UTC . Weather information available at that time is displayed.

METAR/TAF

LA GRANDE-4/QC    (show WxCam)

METAR CYAH 032000Z AUTO 35007KT 240V060 9SM FEW060 20/07 A2971 RMK
SLP070 DENSITY ALT 2000FT=
METAR CYAH 031900Z AUTO 34005KT 290V010 9SM SCT055 20/07 A2971 RMK
SLP070 DENSITY ALT 2000FT=
METAR CYAH 031800Z AUTO 31006KT 9SM SCT047 BKN055 18/08 A2971 RMK
SLP070 DENSITY ALT 1800FT=

TAF CYAH 031738Z 0318/0321 32008KT P6SM BKN040
BECMG 0318/0320 SCT030
RMK FCST BASED ON AUTO OBS. NXT FCST WILL BE ISSUED AT 041045Z=
Your time UTC time
Weather data provided by Environment Canada and NAV CANADA